createdAt,value
2023-01-05T00:01:04.009Z,20.52
2023-01-05T00:03:30.597Z,17.98
2023-01-05T00:06:00.742Z,20.05
2023-01-05T00:08:30.269Z,22.30
2023-01-05T00:11:28.522Z,19.48
2023-01-05T00:14:13.663Z,19.73
2023-01-05T00:16:58.675Z,24.35
2023-01-05T00:19:43.980Z,24.75
2023-01-05T00:22:31.799Z,22.77
2023-01-05T00:25:09.224Z,17.75
2023-01-05T00:27:38.588Z,21.83
2023-01-05T00:30:06.028Z,26.00
2023-01-05T00:32:32.848Z,18.65
2023-01-05T00:34:59.846Z,20.38
2023-01-05T00:37:28.122Z,21.80
2023-01-05T00:39:54.755Z,19.60
2023-01-05T00:42:21.233Z,17.83
2023-01-05T00:44:47.646Z,16.60
2023-01-05T00:47:14.250Z,21.50
2023-01-05T00:49:40.725Z,22.05
2023-01-05T00:52:07.509Z,17.80
2023-01-05T00:54:34.113Z,19.73
2023-01-05T00:57:00.924Z,18.55
2023-01-05T00:59:27.411Z,18.50
2023-01-05T01:01:54.754Z,22.65
2023-01-05T01:04:21.680Z,20.85
2023-01-05T01:06:48.316Z,17.70
2023-01-05T01:09:14.926Z,24.08
2023-01-05T01:11:41.427Z,19.02
2023-01-05T01:14:08.482Z,19.92
2023-01-05T01:16:35.064Z,21.48
2023-01-05T01:19:05.355Z,23.05
2023-01-05T01:21:32.092Z,18.67
2023-01-05T01:23:58.559Z,20.83
2023-01-05T01:26:24.971Z,17.67
2023-01-05T01:28:51.580Z,23.67
2023-01-05T01:31:18.163Z,19.10
2023-01-05T01:33:44.718Z,18.35
2023-01-05T01:36:11.183Z,22.33
2023-01-05T01:38:37.927Z,24.77
2023-01-05T01:41:04.561Z,14.98
2023-01-05T01:43:42.636Z,19.63
2023-01-05T01:46:09.645Z,18.75
2023-01-05T01:48:36.575Z,22.30
2023-01-05T01:51:08.446Z,18.15
2023-01-05T01:53:37.373Z,19.27
2023-01-05T01:56:05.225Z,22.27
2023-01-05T01:58:32.458Z,23.58
2023-01-05T02:01:02.985Z,19.15
2023-01-05T02:03:30.510Z,17.75
2023-01-05T02:05:57.482Z,21.40
2023-01-05T02:08:31.513Z,22.63
2023-01-05T02:11:16.923Z,21.88
2023-01-05T02:13:58.693Z,20.30
2023-01-05T02:16:38.094Z,20.55
2023-01-05T02:19:13.940Z,19.75
2023-01-05T02:21:49.608Z,21.75
2023-01-05T02:24:16.105Z,17.02
2023-01-05T02:27:08.829Z,18.55
2023-01-05T02:29:42.898Z,23.77
2023-01-05T02:32:13.088Z,22.83
2023-01-05T02:35:02.615Z,22.33
2023-01-05T02:37:36.157Z,19.20
2023-01-05T02:40:08.416Z,20.75
2023-01-05T02:42:38.265Z,15.98
2023-01-05T02:45:05.297Z,21.08
2023-01-05T02:47:39.063Z,20.20
2023-01-05T02:50:12.689Z,22.05
2023-01-05T02:52:48.273Z,16.40
2023-01-05T02:55:18.928Z,23.73
2023-01-05T02:57:51.644Z,22.58
2023-01-05T03:00:21.593Z,21.48
2023-01-05T03:02:51.107Z,27.67
2023-01-05T03:05:21.812Z,24.48
2023-01-05T03:07:50.534Z,17.95
2023-01-05T03:10:35.666Z,18.27
2023-01-05T03:13:24.705Z,21.33
2023-01-05T03:15:58.703Z,17.90
2023-01-05T03:18:26.332Z,23.13
2023-01-05T03:20:53.841Z,21.70
2023-01-05T03:23:40.055Z,28.20
2023-01-05T03:26:26.225Z,18.02
2023-01-05T03:29:19.252Z,20.05
2023-01-05T03:32:07.717Z,17.00
2023-01-05T03:35:07.972Z,21.23
2023-01-05T03:37:36.529Z,22.60
2023-01-05T03:40:04.894Z,25.23
2023-01-05T03:42:34.975Z,20.02
2023-01-05T03:45:02.485Z,26.67
2023-01-05T03:47:28.939Z,23.17
2023-01-05T03:49:55.823Z,23.73
2023-01-05T03:52:22.476Z,29.80
2023-01-05T03:54:49.640Z,25.05
2023-01-05T03:57:16.068Z,20.88
2023-01-05T03:59:43.385Z,23.83
2023-01-05T04:02:10.066Z,23.65
2023-01-05T04:04:36.618Z,22.35
2023-01-05T04:07:07.319Z,23.90
2023-01-05T04:09:34.810Z,28.90
2023-01-05T04:12:01.834Z,20.73
2023-01-05T04:14:32.760Z,32.63
2023-01-05T04:16:59.853Z,28.63
2023-01-05T04:19:26.947Z,35.28
2023-01-05T04:21:54.840Z,29.65
2023-01-05T04:24:23.028Z,28.08
2023-01-05T04:26:49.681Z,29.33
2023-01-05T04:29:18.774Z,30.73
2023-01-05T04:31:48.591Z,24.33
2023-01-05T04:34:15.009Z,30.58
2023-01-05T04:36:43.130Z,35.42
2023-01-05T04:39:14.601Z,29.95
2023-01-05T04:41:41.860Z,31.95
2023-01-05T04:44:08.355Z,28.90
2023-01-05T04:46:35.233Z,31.25
2023-01-05T04:49:02.933Z,33.42
2023-01-05T04:51:29.824Z,32.22
2023-01-05T04:53:56.416Z,28.77
2023-01-05T04:56:24.430Z,29.38
2023-01-05T04:58:50.904Z,28.20
2023-01-05T05:01:18.513Z,28.02
2023-01-05T05:03:49.897Z,26.10
2023-01-05T05:06:19.898Z,26.17
2023-01-05T05:08:48.521Z,33.63
2023-01-05T05:11:15.203Z,25.42
2023-01-05T05:13:45.404Z,34.75
2023-01-05T05:16:13.095Z,41.63
2023-01-05T05:18:40.671Z,24.83
2023-01-05T05:21:10.293Z,27.58
2023-01-05T05:23:38.468Z,36.60
2023-01-05T05:26:05.274Z,34.92
2023-01-05T05:28:31.841Z,33.20
2023-01-05T05:30:58.418Z,30.33
2023-01-05T05:33:25.480Z,30.23
2023-01-05T05:35:51.964Z,38.38
2023-01-05T05:38:18.436Z,31.95
2023-01-05T05:40:44.897Z,36.08
2023-01-05T05:43:11.296Z,33.13
2023-01-05T05:45:37.714Z,36.22
2023-01-05T05:48:04.245Z,37.05
2023-01-05T05:50:30.666Z,37.55
2023-01-05T05:53:04.932Z,34.25
2023-01-05T05:55:31.431Z,36.47
2023-01-05T05:57:57.854Z,31.70
2023-01-05T06:00:24.444Z,31.65
2023-01-05T06:02:51.036Z,37.22
2023-01-05T06:05:17.582Z,36.58
2023-01-05T06:07:43.987Z,34.13
2023-01-05T06:10:13.100Z,36.55
2023-01-05T06:12:39.679Z,49.30
2023-01-05T06:15:06.436Z,43.10
2023-01-05T06:17:32.827Z,43.70
2023-01-05T06:19:59.247Z,44.83
2023-01-05T06:22:25.682Z,37.78
2023-01-05T06:24:52.128Z,31.55
2023-01-05T06:27:18.570Z,33.78
2023-01-05T06:29:44.983Z,34.97
2023-01-05T06:32:11.533Z,35.90
2023-01-05T06:34:37.990Z,35.60
2023-01-05T06:37:06.482Z,44.08
2023-01-05T06:39:33.010Z,38.50
2023-01-05T06:41:59.461Z,46.90
2023-01-05T06:44:25.880Z,38.22
2023-01-05T06:46:52.276Z,39.53
2023-01-05T06:49:18.678Z,42.50
2023-01-05T06:51:45.097Z,48.97
2023-01-05T06:54:11.541Z,34.97
2023-01-05T06:56:37.989Z,33.05
2023-01-05T06:59:04.655Z,34.90
2023-01-05T07:01:31.352Z,37.70
2023-01-05T07:03:58.167Z,38.97
2023-01-05T07:06:24.670Z,32.83
2023-01-05T07:08:51.076Z,46.85
2023-01-05T07:11:17.519Z,38.10
2023-01-05T07:13:47.488Z,51.03
2023-01-05T07:16:13.951Z,45.83
2023-01-05T07:18:40.545Z,41.03
2023-01-05T07:21:07.271Z,45.03
2023-01-05T07:23:37.607Z,44.10
2023-01-05T07:26:04.791Z,33.17
2023-01-05T07:28:31.207Z,41.42
2023-01-05T07:30:57.615Z,38.97
2023-01-05T07:33:24.207Z,44.03
2023-01-05T07:35:50.636Z,40.58
2023-01-05T07:38:17.417Z,33.38
2023-01-05T07:40:43.880Z,43.75
2023-01-05T07:43:10.463Z,42.38
2023-01-05T07:45:36.931Z,47.15
2023-01-05T07:48:03.516Z,47.97
2023-01-05T07:50:30.061Z,39.97
2023-01-05T07:52:58.244Z,54.42
2023-01-05T07:55:24.648Z,35.47
2023-01-05T07:57:51.081Z,44.28
2023-01-05T08:00:17.607Z,41.70
2023-01-05T08:02:44.307Z,40.83
2023-01-05T08:05:10.923Z,32.90
2023-01-05T08:07:37.577Z,40.30
2023-01-05T08:10:22.691Z,38.45
2023-01-05T08:13:27.547Z,39.95
2023-01-05T08:15:54.594Z,38.17
2023-01-05T08:18:21.898Z,38.25
2023-01-05T08:20:58.569Z,37.92
2023-01-05T08:23:26.843Z,40.38
2023-01-05T08:25:54.489Z,42.80
2023-01-05T08:28:29.870Z,36.47
2023-01-05T08:31:08.329Z,32.67
2023-01-05T08:33:34.793Z,35.80
2023-01-05T08:36:01.263Z,36.88
2023-01-05T08:38:27.686Z,34.95
2023-01-05T08:40:57.431Z,39.17
2023-01-05T08:43:23.853Z,37.63
2023-01-05T08:45:50.411Z,35.50
2023-01-05T08:48:16.883Z,37.50
2023-01-05T08:50:48.124Z,34.55
2023-01-05T08:53:14.661Z,41.45
2023-01-05T08:55:41.237Z,40.97
2023-01-05T08:58:07.622Z,31.48
2023-01-05T09:00:37.305Z,39.22
2023-01-05T09:03:05.017Z,35.75
2023-01-05T09:05:38.504Z,38.20
2023-01-05T09:08:10.229Z,42.47
2023-01-05T09:10:37.655Z,31.73
2023-01-05T09:13:08.395Z,31.77
2023-01-05T09:15:35.773Z,34.60
2023-01-05T09:18:03.343Z,33.95
2023-01-05T09:20:39.540Z,37.10
2023-01-05T09:23:06.785Z,37.85
2023-01-05T09:25:33.232Z,35.15
2023-01-05T09:27:59.674Z,46.03
2023-01-05T09:30:26.137Z,33.38
2023-01-05T09:32:52.597Z,37.45
2023-01-05T09:35:19.197Z,36.58
2023-01-05T09:37:45.750Z,35.72
2023-01-05T09:40:14.612Z,32.42
2023-01-05T09:42:43.608Z,30.17
2023-01-05T09:45:11.800Z,36.25
2023-01-05T09:47:40.008Z,40.55
2023-01-05T09:50:07.313Z,40.80
2023-01-05T09:52:38.072Z,30.27
2023-01-05T09:55:17.078Z,32.17
2023-01-05T09:57:56.749Z,33.28
2023-01-05T10:00:25.454Z,44.50
2023-01-05T10:03:36.596Z,36.65
2023-01-05T10:06:03.294Z,31.73
2023-01-05T10:08:38.078Z,31.50
2023-01-05T10:11:29.534Z,34.03
2023-01-05T10:14:02.043Z,34.25
2023-01-05T10:16:29.849Z,28.23
2023-01-05T10:18:56.732Z,33.28
2023-01-05T10:21:48.346Z,30.90
2023-01-05T10:24:21.942Z,29.67
2023-01-05T10:29:53.780Z,30.42
2023-01-05T10:32:31.604Z,29.77
2023-01-05T10:35:03.033Z,30.83
2023-01-05T10:37:49.052Z,29.73
2023-01-05T10:40:15.904Z,33.67
2023-01-05T10:42:55.991Z,31.17
2023-01-05T10:45:23.383Z,36.70
2023-01-05T10:47:50.228Z,30.02
2023-01-05T10:50:39.181Z,26.42
2023-01-05T10:53:15.051Z,27.77
2023-01-05T10:55:48.740Z,30.50
2023-01-05T10:58:32.748Z,29.27
2023-01-05T11:01:15.419Z,26.88
2023-01-05T11:04:25.542Z,26.38
2023-01-05T11:06:40.691Z,33.45
2023-01-05T11:09:22.115Z,32.25
2023-01-05T11:11:59.328Z,31.05
2023-01-05T11:14:27.141Z,31.38
2023-01-05T11:16:55.161Z,26.90
2023-01-05T11:19:26.107Z,33.05
2023-01-05T11:21:58.129Z,29.05
2023-01-05T11:24:27.980Z,35.20
2023-01-05T11:26:58.835Z,26.85
2023-01-05T11:29:25.566Z,30.70
2023-01-05T11:31:53.780Z,31.58
2023-01-05T11:34:33.261Z,27.38
2023-01-05T11:37:04.094Z,29.88
2023-01-05T11:39:38.470Z,23.58
2023-01-05T11:42:07.656Z,23.85
2023-01-05T11:44:34.654Z,33.08
2023-01-05T11:47:01.282Z,27.48
2023-01-05T11:49:27.931Z,26.13
2023-01-05T11:51:54.574Z,28.08
2023-01-05T11:54:34.889Z,28.58
2023-01-05T11:57:22.405Z,24.23
2023-01-05T11:59:51.012Z,21.42
2023-01-05T12:02:39.479Z,24.75
2023-01-05T12:05:18.082Z,22.15
2023-01-05T12:07:49.598Z,23.17
2023-01-05T12:10:19.028Z,26.52
2023-01-05T12:13:14.955Z,22.77
2023-01-05T12:15:57.322Z,31.88
2023-01-05T12:18:50.188Z,26.10
2023-01-05T12:21:22.633Z,25.90
2023-01-05T12:23:52.114Z,24.92
2023-01-05T12:26:21.475Z,24.30
2023-01-05T12:29:30.153Z,27.65
2023-01-05T12:35:01.679Z,21.67
2023-01-05T12:37:40.521Z,26.00
2023-01-05T12:40:14.618Z,24.25
2023-01-05T12:42:57.998Z,22.27
2023-01-05T12:45:36.611Z,22.52
2023-01-05T12:48:05.658Z,27.30
2023-01-05T12:50:34.719Z,26.00
2023-01-05T12:53:17.035Z,23.30
2023-01-05T12:56:03.901Z,19.10
2023-01-05T12:58:35.151Z,21.67
2023-01-05T13:01:04.293Z,22.40
2023-01-05T13:03:33.935Z,25.75
2023-01-05T13:06:02.522Z,22.63
2023-01-05T13:08:36.957Z,20.50
2023-01-05T13:11:18.272Z,24.45
2023-01-05T13:13:48.415Z,22.73
2023-01-05T13:16:20.485Z,24.15
2023-01-05T13:18:52.240Z,22.55
2023-01-05T13:21:20.391Z,23.55
2023-01-05T13:23:58.644Z,24.23
2023-01-05T13:26:25.172Z,23.77
2023-01-05T13:28:53.551Z,20.98
2023-01-05T13:31:36.316Z,21.08
2023-01-05T13:34:27.250Z,20.83
2023-01-05T13:36:59.895Z,19.45
2023-01-05T13:39:44.126Z,27.35
2023-01-05T13:42:25.854Z,28.42
2023-01-05T13:45:11.192Z,25.42
2023-01-05T13:47:45.969Z,22.92
2023-01-05T13:50:23.142Z,23.30
2023-01-05T13:52:55.724Z,22.30
2023-01-05T13:55:26.198Z,27.95
2023-01-05T13:57:55.490Z,21.92
2023-01-05T14:00:35.479Z,17.35
2023-01-05T14:03:08.048Z,21.77
2023-01-05T14:05:54.680Z,26.67
2023-01-05T14:08:27.905Z,19.85
2023-01-05T14:11:14.616Z,27.52
2023-01-05T14:13:48.648Z,22.25
2023-01-05T14:16:33.591Z,17.70
2023-01-05T14:19:06.249Z,18.83
2023-01-05T14:21:51.277Z,24.90
2023-01-05T14:24:37.411Z,21.02
2023-01-05T14:27:03.944Z,15.10
2023-01-05T14:29:48.767Z,18.80
2023-01-05T14:32:29.044Z,21.30
2023-01-05T14:37:37.068Z,28.13
2023-01-05T14:40:22.413Z,26.35
2023-01-05T14:42:49.448Z,21.88
2023-01-05T14:45:20.658Z,20.10
2023-01-05T14:47:48.375Z,21.83
2023-01-05T14:50:38.081Z,26.58
2023-01-05T14:53:04.512Z,23.13
2023-01-05T14:55:39.944Z,26.95
2023-01-05T14:58:35.997Z,24.80
2023-01-05T15:03:47.330Z,28.52
2023-01-05T15:06:24.321Z,29.00
2023-01-05T15:09:09.778Z,23.10
2023-01-05T15:11:42.439Z,27.48
2023-01-05T15:14:35.174Z,18.83
2023-01-05T15:17:14.911Z,24.60
2023-01-05T15:19:44.475Z,26.77
2023-01-05T15:22:36.469Z,31.85
2023-01-05T15:25:10.803Z,23.98
2023-01-05T15:27:42.708Z,29.10
2023-01-05T15:30:14.085Z,30.13
2023-01-05T15:32:42.564Z,19.70
2023-01-05T15:35:09.068Z,23.23
2023-01-05T15:37:39.769Z,30.58
2023-01-05T15:40:09.138Z,25.85
2023-01-05T15:42:40.712Z,29.85
2023-01-05T15:45:28.288Z,32.72
2023-01-05T15:47:56.780Z,26.08
2023-01-05T15:50:25.560Z,30.55
2023-01-05T15:52:54.371Z,28.42
2023-01-05T15:55:21.442Z,22.75
2023-01-05T15:57:55.995Z,32.22
2023-01-05T16:00:24.987Z,27.75
2023-01-05T16:02:51.557Z,26.02
2023-01-05T16:05:22.668Z,22.58
2023-01-05T16:07:54.647Z,25.90
2023-01-05T16:10:28.657Z,30.55
2023-01-05T16:13:21.393Z,29.00
2023-01-05T16:15:52.124Z,29.58
2023-01-05T16:18:21.904Z,23.80
2023-01-05T16:20:50.011Z,27.95
2023-01-05T16:23:30.956Z,23.98
2023-01-05T16:25:58.150Z,31.38
2023-01-05T16:28:25.670Z,27.05
2023-01-05T16:30:53.572Z,26.95
2023-01-05T16:33:20.061Z,28.08
2023-01-05T16:35:47.672Z,30.80
2023-01-05T16:38:14.136Z,27.70
2023-01-05T16:40:46.877Z,27.88
2023-01-05T16:43:22.153Z,32.20
2023-01-05T16:45:50.222Z,33.60
2023-01-05T16:48:38.914Z,29.33
2023-01-05T16:51:06.320Z,33.83
2023-01-05T16:53:34.672Z,30.95
2023-01-05T16:56:01.510Z,30.65
2023-01-05T16:58:31.093Z,31.67
2023-01-05T17:01:12.895Z,37.45
2023-01-05T17:03:39.937Z,29.75
2023-01-05T17:06:06.814Z,26.92
2023-01-05T17:08:36.153Z,31.13
2023-01-05T17:11:03.407Z,30.38
2023-01-05T17:13:35.679Z,31.33
2023-01-05T17:16:03.913Z,28.50
2023-01-05T17:18:31.290Z,35.83
2023-01-05T17:20:58.608Z,27.60
2023-01-05T17:23:24.965Z,29.08
2023-01-05T17:28:22.240Z,27.73
2023-01-05T17:30:48.895Z,25.63
2023-01-05T17:33:15.371Z,29.85
2023-01-05T17:35:42.818Z,30.30
2023-01-05T17:38:10.631Z,26.65
2023-01-05T17:40:37.159Z,28.25
2023-01-05T17:43:03.752Z,26.98
2023-01-05T17:45:30.671Z,29.85
2023-01-05T17:47:57.174Z,27.75
2023-01-05T17:50:26.817Z,36.47
2023-01-05T17:52:53.938Z,36.20
2023-01-05T17:55:20.823Z,33.78
2023-01-05T17:57:47.356Z,24.45
2023-01-05T18:00:15.840Z,35.22
2023-01-05T18:02:43.262Z,30.65
2023-01-05T18:05:10.842Z,30.70
2023-01-05T18:07:37.830Z,36.70
2023-01-05T18:12:32.934Z,34.35
2023-01-05T18:14:59.386Z,26.67
2023-01-05T18:17:25.913Z,40.63
2023-01-05T18:19:52.393Z,34.67
2023-01-05T18:22:18.920Z,35.17
2023-01-05T18:24:45.571Z,34.40
2023-01-05T18:27:12.488Z,35.13
2023-01-05T18:29:39.390Z,42.13
2023-01-05T18:32:06.600Z,30.00
2023-01-05T18:34:33.142Z,39.47
2023-01-05T18:37:05.821Z,26.52
2023-01-05T18:39:37.132Z,35.00
2023-01-05T18:42:03.956Z,28.25
2023-01-05T18:44:30.501Z,32.00
2023-01-05T18:46:56.982Z,28.52
2023-01-05T18:49:23.421Z,25.70
2023-01-05T18:51:51.042Z,35.15
2023-01-05T18:54:18.165Z,36.13
2023-01-05T18:56:44.710Z,46.00
2023-01-05T18:59:11.892Z,33.30
2023-01-05T19:01:43.125Z,30.73
2023-01-05T19:04:13.881Z,30.80
2023-01-05T19:06:40.387Z,26.80
2023-01-05T19:09:08.998Z,25.95
2023-01-05T19:11:36.231Z,30.77
2023-01-05T19:14:03.342Z,34.03
2023-01-05T19:16:30.920Z,34.72
2023-01-05T19:18:58.689Z,32.40
2023-01-05T19:21:25.737Z,35.45
2023-01-05T19:23:56.438Z,41.35
2023-01-05T19:26:23.120Z,34.95
2023-01-05T19:28:50.831Z,37.95
2023-01-05T19:31:18.165Z,40.90
2023-01-05T19:33:44.747Z,34.10
2023-01-05T19:36:12.535Z,36.22
2023-01-05T19:38:39.471Z,36.45
2023-01-05T19:41:06.147Z,32.92
2023-01-05T19:43:32.620Z,36.83
2023-01-05T19:46:00.075Z,37.47
2023-01-05T19:48:26.687Z,32.42
2023-01-05T19:50:57.075Z,31.58
2023-01-05T19:53:25.520Z,40.30
2023-01-05T19:55:52.029Z,41.42
2023-01-05T19:58:29.699Z,40.78
2023-01-05T20:00:57.969Z,38.85
2023-01-05T20:03:24.665Z,32.15
2023-01-05T20:05:51.258Z,33.42
2023-01-05T20:08:17.716Z,39.42
2023-01-05T20:10:44.133Z,33.00
2023-01-05T20:13:10.581Z,47.38
2023-01-05T20:15:37.079Z,38.60
2023-01-05T20:18:03.699Z,35.67
2023-01-05T20:20:30.293Z,29.23
2023-01-05T20:22:56.787Z,27.27
2023-01-05T20:25:23.322Z,30.60
2023-01-05T20:27:49.732Z,29.83
2023-01-05T20:30:16.275Z,33.55
2023-01-05T20:32:42.750Z,43.92
2023-01-05T20:35:11.684Z,33.55
2023-01-05T20:37:38.341Z,31.67
2023-01-05T20:40:05.077Z,26.30
2023-01-05T20:42:31.631Z,36.65
2023-01-05T20:44:58.209Z,34.70
2023-01-05T20:47:24.609Z,32.72
2023-01-05T20:49:51.071Z,35.08
2023-01-05T20:52:17.770Z,41.42
2023-01-05T20:54:44.566Z,37.75
2023-01-05T20:57:11.152Z,39.33
2023-01-05T20:59:41.288Z,31.33
2023-01-05T21:02:22.353Z,23.25
2023-01-05T21:04:50.090Z,32.45
2023-01-05T21:07:16.509Z,28.15
2023-01-05T21:09:43.220Z,33.70
2023-01-05T21:12:09.746Z,29.27
2023-01-05T21:14:36.239Z,25.08
2023-01-05T21:17:02.733Z,29.80
2023-01-05T21:19:29.190Z,28.63
2023-01-05T21:21:56.585Z,48.08
2023-01-05T21:24:23.355Z,31.85
2023-01-05T21:26:50.267Z,38.10
2023-01-05T21:29:19.182Z,34.67
2023-01-05T21:31:46.064Z,28.85
2023-01-05T21:34:13.078Z,22.50
2023-01-05T21:36:41.616Z,24.90
2023-01-05T21:39:08.628Z,32.67
2023-01-05T21:41:55.167Z,23.75
2023-01-05T21:44:21.665Z,22.90
2023-01-05T21:46:48.501Z,29.10
2023-01-05T21:49:15.330Z,20.08
2023-01-05T21:52:03.624Z,22.92
2023-01-05T21:54:52.949Z,28.15
2023-01-05T21:57:19.390Z,22.88
2023-01-05T21:59:58.495Z,26.75
2023-01-05T22:02:27.766Z,22.05
2023-01-05T22:05:00.262Z,22.38
2023-01-05T22:07:29.375Z,20.52
2023-01-05T22:09:58.084Z,23.42
2023-01-05T22:12:33.653Z,22.33
2023-01-05T22:15:00.107Z,16.77
2023-01-05T22:17:26.580Z,18.63
2023-01-05T22:20:01.185Z,29.40
2023-01-05T22:22:29.467Z,20.70
2023-01-05T22:25:02.906Z,18.92
2023-01-05T22:27:48.377Z,16.15
2023-01-05T22:30:24.055Z,26.45
2023-01-05T22:33:00.703Z,18.90
2023-01-05T22:35:30.341Z,18.90
2023-01-05T22:37:56.844Z,17.13
2023-01-05T22:40:40.792Z,20.90
2023-01-05T22:43:09.619Z,15.07
2023-01-05T22:45:36.198Z,14.90
2023-01-05T22:48:05.732Z,22.33
2023-01-05T22:50:34.003Z,18.55
2023-01-05T22:53:03.206Z,17.33
2023-01-05T22:55:29.876Z,16.20
2023-01-05T22:58:00.642Z,12.48
2023-01-05T23:00:40.306Z,16.90
2023-01-05T23:03:06.806Z,15.93
2023-01-05T23:05:37.069Z,13.40
2023-01-05T23:08:06.193Z,12.57
2023-01-05T23:10:37.367Z,11.05
2023-01-05T23:13:03.806Z,13.82
2023-01-05T23:15:32.512Z,13.02
2023-01-05T23:18:04.874Z,12.68
2023-01-05T23:23:14.511Z,7.35
2023-01-05T23:25:43.722Z,10.35
2023-01-05T23:28:13.512Z,9.75
2023-01-05T23:30:44.620Z,10.02
2023-01-05T23:33:14.897Z,6.10
2023-01-05T23:35:42.720Z,7.72
2023-01-05T23:38:12.180Z,9.80
2023-01-05T23:40:45.551Z,7.90
2023-01-05T23:43:18.464Z,11.38
2023-01-05T23:45:52.240Z,6.93
2023-01-05T23:48:20.762Z,7.03
2023-01-05T23:50:48.116Z,8.02
2023-01-05T23:53:20.046Z,4.75
2023-01-05T23:55:50.905Z,7.00
2023-01-05T23:58:21.411Z,8.88
